Bayard, NE (69334)

11:32 AM MDT on March 29, 2015 (GMT -0600)
Bridgeport Ampride | | Change Station
CLOSE
Current Station
Personal Weather Station
Location: Bridgeport, NE
Elevation: 3671 ft
Nearby Weather Stations
Active Advisory: Special Statement Active Notice: Record Report

Elev 3671 ft 41.67 °N, 103.10 °W | Updated 1 minute ago

Clear
Clear
55.7 °F
Feels Like 55.7 °F
N
15.0
Wind Variable Wind from ESE
Gusts 27.0 mph

Today
High -- | Low -- °F
--% Chance of Precip.
Yesterday
High -- | Low -- °F
Precip. -- in
6:41 AM 7:15 PM
Waxing Gibbous, 73% visible
Pressure 30.20 in
Visibility 10.0 miles
Clouds Clear
Dew Point 26 °F
Humidity 32%
Rainfall 0.00 in
Snow Depth Not available.
UV 6 out of 12
Pollen 9.20 out of 12
Air Quality Not available.
Flu Activity Not available.
METAR KBFF 291653Z AUTO 33021G29KT 10SM CLR 14/M03 A3027 RMK AO2 PK WND 34029/1653 SLP226 T01391028

More Conditions Fewer Conditions

Pressure 30.20 in
Visibility 10.0 miles
Clouds Clear
Dew Point 26 °F
Humidity 32%
Rainfall 0.00 in
Snow Depth Not available.
UV 6 out of 12
Pollen 9.20 out of 12
Air Quality Not available.
Flu Activity Not available.
METAR KBFF 291653Z AUTO 33021G29KT 10SM CLR 14/M03 A3027 RMK AO2 PK WND 34029/1653 SLP226 T01391028

More Conditions Fewer Conditions

10-Day Weather Forecast

Almanac

Astronomy

Mar. 29, 2015 Rise Set
Actual Time
Civil Twilight
Nautical Twilight
Astronomical Twilight
Moon
Length of Visible Light
Length of Day
Tomorrow will be .
, % of the Moon is Illuminated

Today's Extremes

State Highs State Lows

Community

WunderPhotos

Upload Photos

1,809,302 photos uploaded!

WunderBlogs® & News

Nearby

Air Quality

  Air Quality AQ Index Pollutant
Not available.

Snow Depth

Station Depth Elevation

Earthquake Activity

City Distance Mag. Time & Date
Minimum magnitude displayed is 2.5.

Coastal Water Temperatures

Place Temperature

Stations

Nearby Weather Stations

Station Location Temp. Windchill Dew Point Humidity Wind Precip. Elev Updated Type
                   
Special Statement
Statement as of 10:05 AM MDT on March 29, 2015

... Windy conditions across Morrill and Cheyenne counties over next
few hours...

Northwest winds could gust to 40-45 mph through noon across
portions of Morrill and Cheyenne counties in the Nebraska
Panhandle. Motorists driving lightweight or high profile vehicles
are urged to drive with caution when encountering high wind gusts.
The windy conditions should subside after noon.